Terminal Aerodrome Forecast
Issued by NWS Charleston, WV

Current Version | Previous Version | Graphics & Text | Print | Product List | Glossary On
Versions: 1 2 3 4 5 6 7 8 9 10 11 12 13 14 15 16 17 18 19 20 21 22 23 24 25
578
FTUS41 KRLX 181740
TAFHTS
TAF
KHTS 181740Z 1818/1918 27006KT P6SM BKN015 OVC025
     FM182200 27004KT P6SM SCT020
     FM190800 VRB03KT P6SM SCT150
     FM190900 00000KT 3SM BR SCT001 SCT150=

USA.gov is the U.S. government's official web portal to all federal, state and local government web resources and services.